Huvudsida
METAR-TAF:

METAR-TAF

Flygplatser :

Sunan International Airport

Pyongyang, Nordkorea

latitud: 39-02N, longitud: 125-47E, höjd: 36 m

METAR: saknas

Tid: 17:57 (09:27 UTC)

Väderprognos

Denna rapport gjordes för 5 timmar och 7 minuter sedan, klockan 04:20 UTC
Prognos gäller från 26 kl. 06 UTC till 27 kl. 06 UTC
Vind 10 kt från ost/sydost
Sikt 10 km eller mer
Spridda moln på en höjd av 2000 ft
Brutna moln på en höjd av 10000 ft
Blir
från 26 kl. 09 UTC till 26 kl. 11 UTC
Vind 8 kt från ost
Sikt 10 km eller mer
Inga moln under 1 500 m eller inga cumulonimbus

TAF: ZKPY 260420Z 2606/2706 12005MPS 9999 SCT020 BKN100 BECMG 2609/2611 09004MPS CAVOK TX22/2606Z TN11/2621Z

Aktuella väderrapporter och prognoser från 4000 flygplatser (METAR- och TAF-rapporter).

De tillgängliga stationerna syns som gula och röda prickar på kartan.

För musen över prickarna för att se namnen på stationerna.

Klicka sedan för att få väderrapporter och prognoser.

För att ändra kartan: Klicka på de gröna knapparna med ett svart kors på för att zooma in; den gröna knappen med ett streck på för att zooma ut; eller på de gröna pilarna för angränsande kartor.


METAR-TAF: